Bolivar, OH (44612)

5:58 PM EST on December 06, 2016 (GMT -0500)
GET | | Change Station

Elev 980 ft 40.63 °N, 81.53 °W | Updated 2 minutes ago

Overcast
Overcast
40.5 °F
Feels Like 40 °F
N
0.0
Wind Variable Wind from East
Gusts 1.0 mph

Today
High -- | Low -- °F
--% Chance of Precip.
Yesterday
High -- | Low -- °F
Precip. -- in
Pressure 29.73 in
Visibility 2.5 miles
Clouds Overcast 600 ft
Windchill 40 °F
Dew Point 39 °F
Humidity 96%
Rainfall 0.46 in
Snow Depth Not available.
7:35 AM 4:58 PM
Waxing Crescent, 46% visible
METAR KPHD 062253Z AUTO 00000KT 2 1/2SM BR OVC006 05/05 A2971 RMK AO2 RAE16 SLP065 P0002 T00500050
Pressure 29.73 in
Visibility 2.5 miles
Clouds Overcast 600 ft
Windchill 40 °F
Dew Point 39 °F
Humidity 96%
Rainfall 0.46 in
Snow Depth Not available.
7:35 AM 4:58 PM
Waxing Crescent, 46% visible
METAR KPHD 062253Z AUTO 00000KT 2 1/2SM BR OVC006 05/05 A2971 RMK AO2 RAE16 SLP065 P0002 T00500050

10-Day Weather Forecast

Almanac

Astronomy

Dec. 06, 2016 Rise Set
Actual Time
Civil Twilight
Nautical Twilight
Astronomical Twilight
Moon
Length of Visible Light
Length of Day
Tomorrow will be .
, % of the Moon is Illuminated

Today's Extremes

State Highs State Lows

Community

WunderPhotos

Upload Photos

1,956,042 photos uploaded!

WunderBlog® & News

Nearby

Air Quality

  Air Quality AQ Index Pollutant
Not available.

Snow Depth

Station Depth Elevation

Earthquake Activity

City Distance Mag. Time & Date
Minimum magnitude displayed is 2.5.

Coastal Water Temperatures

Place Temperature

Stations

Nearby Weather Stations

Station Location Temp. Windchill Dew Point Humidity Wind Precip. Elev Updated Type
                   

Watches & Warnings

There are currently no watches in effect.